createdAt,value
2017-06-05T00:00:35.639Z,76.86
2017-06-05T00:01:17.309Z,76.96
2017-06-05T00:01:57.986Z,76.77
2017-06-05T00:02:38.563Z,77.15
2017-06-05T00:03:20.306Z,76.96
2017-06-05T00:04:02.991Z,76.96
2017-06-05T00:04:49.426Z,77.15
2017-06-05T00:05:30.021Z,77.34
2017-06-05T00:06:11.674Z,77.34
2017-06-05T00:06:52.372Z,77.34
2017-06-05T00:07:33.051Z,77.44
2017-06-05T00:08:13.645Z,77.15
2017-06-05T00:08:55.320Z,77.06
2017-06-05T00:09:35.993Z,77.62
2017-06-05T00:10:16.694Z,77.44
2017-06-05T00:10:57.282Z,77.91
2017-06-05T00:11:38.937Z,77.72
2017-06-05T00:12:19.642Z,77.72
2017-06-05T00:13:01.455Z,77.72
2017-06-05T00:13:42.055Z,77.34
2017-06-05T00:14:22.694Z,77.44
2017-06-05T00:15:08.079Z,77.82
2017-06-05T00:15:55.443Z,77.62
2017-06-05T00:16:37.111Z,77.82
2017-06-05T00:17:17.783Z,77.72
2017-06-05T00:17:58.410Z,77.62
2017-06-05T00:18:39.070Z,77.34
2017-06-05T00:19:19.734Z,77.34
2017-06-05T00:20:00.388Z,77.53
2017-06-05T00:20:42.060Z,77.53
2017-06-05T00:21:22.638Z,77.53
2017-06-05T00:22:04.291Z,78.01
2017-06-05T00:22:46.021Z,77.82
2017-06-05T00:23:27.742Z,77.72
2017-06-05T00:24:08.325Z,77.53
2017-06-05T00:24:48.959Z,77.91
2017-06-05T00:25:29.706Z,78.01
2017-06-05T00:26:10.372Z,78.2
2017-06-05T00:26:50.936Z,77.91
2017-06-05T00:27:31.581Z,78.01
2017-06-05T00:28:12.292Z,78.1
2017-06-05T00:28:57.968Z,77.82
2017-06-05T00:29:38.559Z,78.01
2017-06-05T00:30:20.224Z,77.53
2017-06-05T00:31:00.924Z,78.1
2017-06-05T00:31:41.556Z,77.53
2017-06-05T00:32:23.268Z,77.91
2017-06-05T00:33:04.932Z,77.91
2017-06-05T00:33:45.578Z,77.62
2017-06-05T00:34:32.064Z,77.82
2017-06-05T00:35:12.946Z,77.82
2017-06-05T00:35:53.793Z,77.62
2017-06-05T00:36:35.429Z,78.01
2017-06-05T00:37:16.062Z,78.01
2017-06-05T00:37:56.731Z,77.72
2017-06-05T00:38:37.396Z,77.82
2017-06-05T00:39:20.091Z,77.72
2017-06-05T00:40:00.757Z,77.91
2017-06-05T00:40:42.407Z,77.91
2017-06-05T00:41:23.087Z,77.72
2017-06-05T00:42:04.716Z,77.82
2017-06-05T00:42:45.376Z,77.82
2017-06-05T00:43:28.090Z,78.2
2017-06-05T00:44:08.745Z,77.91
2017-06-05T00:44:49.410Z,77.91
2017-06-05T00:45:29.950Z,77.91
2017-06-05T00:46:15.565Z,78.01
2017-06-05T00:46:56.149Z,78.01
2017-06-05T00:47:36.664Z,78.1
2017-06-05T00:48:17.294Z,78.01
2017-06-05T00:48:58.885Z,77.62
2017-06-05T00:49:41.529Z,77.91
2017-06-05T00:50:22.077Z,78.39
2017-06-05T00:51:03.777Z,78.58
2017-06-05T00:51:44.442Z,78.39
2017-06-05T00:52:25.080Z,78.39
2017-06-05T00:53:05.734Z,78.2
2017-06-05T00:53:51.334Z,78.1
2017-06-05T00:54:31.951Z,78.3
2017-06-05T00:55:12.606Z,78.3
2017-06-05T00:55:54.192Z,78.3
2017-06-05T00:56:35.937Z,78.3
2017-06-05T00:57:17.602Z,78.01
2017-06-05T00:57:58.189Z,78.39
2017-06-05T00:58:38.865Z,78.67
2017-06-05T00:59:19.494Z,78.58
2017-06-05T01:00:06.838Z,78.92
2017-06-05T01:00:48.491Z,78.83
2017-06-05T01:01:29.109Z,78.83
2017-06-05T01:02:09.666Z,78.83
2017-06-05T01:02:50.237Z,79.02
2017-06-05T01:03:30.875Z,78.92
2017-06-05T01:04:11.379Z,78.83
2017-06-05T01:04:52.019Z,78.92
2017-06-05T01:05:32.729Z,78.54
2017-06-05T01:06:13.485Z,79.02
2017-06-05T01:06:54.134Z,79.21
2017-06-05T01:07:35.713Z,79.02
2017-06-05T01:08:17.384Z,78.83
2017-06-05T01:09:02.954Z,79.21
2017-06-05T01:09:44.631Z,79.11
2017-06-05T01:10:30.916Z,79.21
2017-06-05T01:11:11.506Z,78.83
2017-06-05T01:11:52.128Z,79.88
2017-06-05T01:12:32.730Z,79.49
2017-06-05T01:13:14.351Z,79.49
2017-06-05T01:13:54.948Z,79.49
2017-06-05T01:14:35.596Z,79.3
2017-06-05T01:15:17.301Z,79.4
2017-06-05T01:15:59.930Z,79.68
2017-06-05T01:16:40.566Z,79.59
2017-06-05T01:17:22.145Z,79.59
2017-06-05T01:18:04.737Z,79.4
2017-06-05T01:18:45.398Z,79.49
2017-06-05T01:19:30.972Z,80.07
2017-06-05T01:20:11.622Z,79.49
2017-06-05T01:20:52.269Z,79.46
2017-06-05T01:21:33.838Z,79.83
2017-06-05T01:22:16.447Z,79.97
2017-06-05T01:22:58.023Z,80.12
2017-06-05T01:23:38.681Z,79.74
2017-06-05T01:24:19.330Z,80.02
2017-06-05T01:24:59.893Z,79.83
2017-06-05T01:25:40.582Z,80.12
2017-06-05T01:26:21.129Z,80.22
2017-06-05T01:27:08.320Z,80.02
2017-06-05T01:28:05.751Z,80.31
2017-06-05T01:28:52.234Z,80.12
2017-06-05T01:29:32.913Z,80.02
2017-06-05T01:30:13.554Z,80.22
2017-06-05T01:30:54.199Z,79.83
2017-06-05T01:31:34.846Z,80.6
2017-06-05T01:32:20.240Z,80.22
2017-06-05T01:33:00.890Z,80.88
2017-06-05T01:33:41.537Z,80.6
2017-06-05T01:34:27.817Z,80.6
2017-06-05T01:35:09.472Z,80.41
2017-06-05T01:35:51.069Z,80.5
2017-06-05T01:36:31.645Z,80.5
2017-06-05T01:37:12.247Z,81.26
2017-06-05T01:37:52.776Z,80.88
2017-06-05T01:38:33.359Z,80.69
2017-06-05T01:39:13.953Z,80.88
2017-06-05T01:39:54.551Z,80.88
2017-06-05T01:40:35.101Z,80.69
2017-06-05T01:41:27.251Z,80.6
2017-06-05T01:42:09.890Z,80.98
2017-06-05T01:43:02.454Z,80.88
2017-06-05T01:43:42.988Z,80.5
2017-06-05T01:44:23.584Z,80.6
2017-06-05T01:45:04.170Z,81.26
2017-06-05T01:45:46.805Z,81.46
2017-06-05T01:46:27.390Z,81.26
2017-06-05T01:47:09.048Z,81.26
2017-06-05T01:47:49.649Z,81.17
2017-06-05T01:48:32.286Z,81.26
2017-06-05T01:49:12.835Z,81.26
2017-06-05T01:49:54.451Z,80.94
2017-06-05T01:50:35.789Z,81.17
2017-06-05T01:51:16.431Z,81.6
2017-06-05T01:51:58.825Z,81.74
2017-06-05T01:52:39.476Z,81.6
2017-06-05T01:53:20.129Z,81.46
2017-06-05T01:54:00.791Z,81.26
2017-06-05T01:54:41.436Z,81.13
2017-06-05T01:55:23.115Z,81.41
2017-06-05T01:56:03.630Z,81.51
2017-06-05T01:56:45.273Z,81.79
2017-06-05T01:57:26.300Z,81.6
2017-06-05T01:58:15.667Z,81.41
2017-06-05T01:58:57.947Z,81.89
2017-06-05T01:59:40.589Z,81.79
2017-06-05T02:00:21.239Z,81.51
2017-06-05T02:01:02.923Z,81.51
2017-06-05T02:01:43.555Z,81.7
2017-06-05T02:02:24.203Z,81.6
2017-06-05T02:03:05.009Z,81.7
2017-06-05T02:03:45.916Z,81.41
2017-06-05T02:04:26.887Z,81.7
2017-06-05T02:05:07.441Z,81.89
2017-06-05T02:05:48.093Z,81.7
2017-06-05T02:06:28.650Z,81.7
2017-06-05T02:07:09.438Z,81.79
2017-06-05T02:07:54.757Z,81.79
2017-06-05T02:08:35.414Z,81.89
2017-06-05T02:09:17.083Z,82.27
2017-06-05T02:09:57.739Z,82.27
2017-06-05T02:10:38.405Z,82.46
2017-06-05T02:11:19.064Z,82.27
2017-06-05T02:11:59.751Z,82.37
2017-06-05T02:12:42.381Z,81.98
2017-06-05T02:13:22.919Z,82.37
2017-06-05T02:14:03.699Z,82.27
2017-06-05T02:14:44.373Z,82.27
2017-06-05T02:15:25.024Z,82.18
2017-06-05T02:16:12.570Z,82.18
2017-06-05T02:16:53.167Z,82.37
2017-06-05T02:17:33.733Z,82.46
2017-06-05T02:18:14.385Z,82.37
2017-06-05T02:18:56.003Z,82.37
2017-06-05T02:19:36.724Z,82.56
2017-06-05T02:20:17.272Z,82.84
2017-06-05T02:20:57.910Z,82.65
2017-06-05T02:21:38.516Z,82.84
2017-06-05T02:22:20.149Z,83.13
2017-06-05T02:23:00.805Z,82.75
2017-06-05T02:23:41.452Z,82.84
2017-06-05T02:24:22.099Z,82.84
2017-06-05T02:25:02.782Z,82.65
2017-06-05T02:25:43.434Z,82.65
2017-06-05T02:26:25.081Z,82.84
2017-06-05T02:27:05.645Z,82.65
2017-06-05T02:27:46.292Z,82.75
2017-06-05T02:28:26.933Z,83.03
2017-06-05T02:29:07.450Z,83.03
2017-06-05T02:29:48.162Z,82.93
2017-06-05T02:30:28.781Z,83.13
2017-06-05T02:31:09.319Z,83.22
2017-06-05T02:31:50.022Z,82.9
2017-06-05T02:32:32.607Z,83.22
2017-06-05T02:33:13.260Z,83.32
2017-06-05T02:33:53.904Z,83.28
2017-06-05T02:34:34.573Z,83.41
2017-06-05T02:35:19.813Z,83.22
2017-06-05T02:36:01.524Z,83.32
2017-06-05T02:36:42.252Z,83.03
2017-06-05T02:37:22.890Z,83.56
2017-06-05T02:38:03.420Z,82.8
2017-06-05T02:38:44.034Z,83.03
2017-06-05T02:39:25.529Z,83.32
2017-06-05T02:40:06.355Z,83.61
2017-06-05T02:40:47.827Z,82.8
2017-06-05T02:41:28.371Z,83.03
2017-06-05T02:42:08.995Z,83.7
2017-06-05T02:42:49.519Z,83.41
2017-06-05T02:43:30.135Z,83.65
2017-06-05T02:44:10.747Z,83.65
2017-06-05T02:44:51.285Z,83.09
2017-06-05T02:45:31.895Z,82.56
2017-06-05T02:46:13.528Z,82.9
2017-06-05T02:46:54.188Z,83.47
2017-06-05T02:47:34.845Z,83.37
2017-06-05T02:48:15.539Z,83.51
2017-06-05T02:48:56.149Z,83.47
2017-06-05T02:49:36.797Z,83.41
2017-06-05T02:50:17.450Z,83.41
2017-06-05T02:50:58.102Z,83.56
2017-06-05T02:51:38.617Z,83.41
2017-06-05T02:52:19.316Z,83.41
2017-06-05T02:53:00.027Z,83.32
2017-06-05T02:53:41.787Z,83.51
2017-06-05T02:54:22.656Z,83.47
2017-06-05T02:55:03.603Z,83.03
2017-06-05T02:55:44.587Z,83.7
2017-06-05T02:56:25.854Z,82.84
2017-06-05T02:57:06.376Z,83.51
2017-06-05T02:57:47.007Z,82.9
2017-06-05T02:58:28.799Z,83.61
2017-06-05T02:59:09.508Z,82.93
2017-06-05T02:59:50.041Z,82.84
2017-06-05T03:00:30.915Z,83.32
2017-06-05T03:01:11.520Z,83.32
2017-06-05T03:01:52.113Z,83.13
2017-06-05T03:02:32.643Z,83.03
2017-06-05T03:03:13.224Z,82.93
2017-06-05T03:03:53.817Z,83.03
2017-06-05T03:04:34.402Z,83.13
2017-06-05T03:05:14.928Z,83.32
2017-06-05T03:05:55.544Z,83.13
2017-06-05T03:06:37.141Z,83.03
2017-06-05T03:07:17.805Z,83.13
2017-06-05T03:07:58.834Z,83.03
2017-06-05T03:08:39.415Z,83.03
2017-06-05T03:09:21.080Z,83.41
2017-06-05T03:10:01.950Z,83.41
2017-06-05T03:10:42.604Z,83.41
2017-06-05T03:11:23.604Z,83.22
2017-06-05T03:12:05.168Z,83.22
2017-06-05T03:12:46.087Z,83.22
2017-06-05T03:13:26.749Z,83.51
2017-06-05T03:14:07.456Z,83.22
2017-06-05T03:14:48.005Z,83.22
2017-06-05T03:15:28.673Z,83.22
2017-06-05T03:16:09.262Z,83.03
2017-06-05T03:16:49.919Z,83.22
2017-06-05T03:17:30.568Z,83.22
2017-06-05T03:18:11.210Z,83.13
2017-06-05T03:18:51.865Z,83.22
2017-06-05T03:19:32.522Z,83.22
2017-06-05T03:20:13.171Z,83.41
2017-06-05T03:20:53.833Z,83.51
2017-06-05T03:21:34.475Z,83.41
2017-06-05T03:22:15.144Z,83.13
2017-06-05T03:22:55.791Z,83.13
2017-06-05T03:23:36.440Z,83.41
2017-06-05T03:24:17.096Z,83.41
2017-06-05T03:24:57.749Z,83.13
2017-06-05T03:25:38.421Z,83.41
2017-06-05T03:26:19.069Z,83.51
2017-06-05T03:26:59.712Z,83.51
2017-06-05T03:27:40.387Z,83.32
2017-06-05T03:28:21.004Z,83.32
2017-06-05T03:29:01.653Z,83.32
2017-06-05T03:29:42.349Z,83.61
2017-06-05T03:30:22.961Z,83.51
2017-06-05T03:31:03.630Z,83.41
2017-06-05T03:31:44.278Z,83.51
2017-06-05T03:32:24.933Z,83.41
2017-06-05T03:33:05.475Z,83.32
2017-06-05T03:33:46.135Z,83.03
2017-06-05T03:34:26.771Z,82.84
2017-06-05T03:35:07.443Z,83.03
2017-06-05T03:35:48.084Z,83.22
2017-06-05T03:36:28.684Z,83.22
2017-06-05T03:37:09.263Z,82.93
2017-06-05T03:37:49.875Z,82.84
2017-06-05T03:38:30.509Z,82.93
2017-06-05T03:39:11.183Z,83.13
2017-06-05T03:39:51.715Z,83.22
2017-06-05T03:40:32.294Z,83.13
2017-06-05T03:41:12.907Z,82.93
2017-06-05T03:41:53.548Z,82.93
2017-06-05T03:42:34.195Z,82.84
2017-06-05T03:43:14.866Z,83.13
2017-06-05T03:43:55.517Z,83.03
2017-06-05T03:44:36.169Z,82.65
2017-06-05T03:45:16.833Z,82.84
2017-06-05T03:45:57.465Z,82.75
2017-06-05T03:46:38.129Z,82.84
2017-06-05T03:47:18.739Z,82.84
2017-06-05T03:47:59.395Z,82.84
2017-06-05T03:48:40.067Z,83.03
2017-06-05T03:49:20.715Z,82.75
2017-06-05T03:50:01.237Z,82.84
2017-06-05T03:50:41.866Z,82.75
2017-06-05T03:51:22.531Z,82.75
2017-06-05T03:52:03.176Z,82.75
2017-06-05T03:52:44.742Z,82.46
2017-06-05T03:53:25.311Z,82.56
2017-06-05T03:54:05.960Z,82.65
2017-06-05T03:54:46.621Z,82.65
2017-06-05T03:55:27.280Z,82.65
2017-06-05T03:56:07.797Z,82.65
2017-06-05T03:56:48.403Z,82.84
2017-06-05T03:57:28.981Z,82.93
2017-06-05T03:58:09.669Z,83.03
2017-06-05T03:58:50.225Z,82.69
2017-06-05T03:59:30.776Z,82.89
2017-06-05T04:00:11.389Z,82.79
2017-06-05T04:00:52.004Z,82.41
2017-06-05T04:01:33.654Z,82.69
2017-06-05T04:02:14.310Z,82.5
2017-06-05T04:02:55.002Z,82.31
2017-06-05T04:03:35.612Z,82.31
2017-06-05T04:04:16.262Z,82.21
2017-06-05T04:04:56.917Z,82.21
2017-06-05T04:05:37.570Z,82.03
2017-06-05T04:06:18.107Z,82.12
2017-06-05T04:06:58.686Z,82.5
2017-06-05T04:07:40.356Z,81.84
2017-06-05T04:08:20.875Z,82.07
2017-06-05T04:09:01.470Z,82.03
2017-06-05T04:09:42.103Z,81.59
2017-06-05T04:10:22.651Z,81.59
2017-06-05T04:11:03.362Z,81.78
2017-06-05T04:11:43.955Z,81.78
2017-06-05T04:12:24.612Z,81.97
2017-06-05T04:13:05.266Z,82.07
2017-06-05T04:13:45.912Z,81.3
2017-06-05T04:14:27.498Z,81.02
2017-06-05T04:15:08.145Z,81.68
2017-06-05T04:15:48.800Z,81.21
2017-06-05T04:16:29.366Z,81.68
2017-06-05T04:17:10.028Z,81.02
2017-06-05T04:17:50.658Z,81.3
2017-06-05T04:18:31.184Z,80.92
2017-06-05T04:19:12.849Z,81.3
2017-06-05T04:19:53.533Z,80.54
2017-06-05T04:20:34.067Z,80.68
2017-06-05T04:21:14.678Z,80.73
2017-06-05T04:21:55.292Z,81.06
2017-06-05T04:22:35.833Z,80.87
2017-06-05T04:23:16.422Z,80.49
2017-06-05T04:23:58.017Z,80.77
2017-06-05T04:24:38.663Z,80.68
2017-06-05T04:25:19.237Z,80.68
2017-06-05T04:25:59.916Z,80.58
2017-06-05T04:26:40.611Z,80.11
2017-06-05T04:27:21.181Z,80.11
2017-06-05T04:28:01.733Z,80.39
2017-06-05T04:28:42.417Z,80.49
2017-06-05T04:29:23.096Z,80.3
2017-06-05T04:30:03.692Z,79.91
2017-06-05T04:30:44.212Z,79.91
2017-06-05T04:31:24.905Z,80.11
2017-06-05T04:32:05.593Z,80.11
2017-06-05T04:32:46.203Z,80.01
2017-06-05T04:33:26.744Z,79.35
2017-06-05T04:34:07.426Z,79.44
2017-06-05T04:34:48.131Z,79.44
2017-06-05T04:35:28.721Z,79.67
2017-06-05T04:36:09.237Z,79.44
2017-06-05T04:36:49.935Z,79.57
2017-06-05T04:37:30.633Z,79.86
2017-06-05T04:38:11.320Z,79.19
2017-06-05T04:38:51.857Z,79.1
2017-06-05T04:39:32.526Z,79.1
2017-06-05T04:40:13.247Z,78.72
2017-06-05T04:40:53.935Z,78.91
2017-06-05T04:41:34.475Z,78.81
2017-06-05T04:42:15.142Z,79
2017-06-05T04:42:55.687Z,78.43
2017-06-05T04:43:36.371Z,78.52
2017-06-05T04:44:17.050Z,78.33
2017-06-05T04:44:57.771Z,78.43
2017-06-05T04:45:38.301Z,78.52
2017-06-05T04:46:19.024Z,78.09
2017-06-05T04:46:59.669Z,77.99
2017-06-05T04:47:40.399Z,78.09
2017-06-05T04:48:21.132Z,77.7
2017-06-05T04:49:01.787Z,77.42
2017-06-05T04:49:42.445Z,77.61
2017-06-05T04:50:23.076Z,77.7
2017-06-05T04:51:03.798Z,76.94
2017-06-05T04:51:44.439Z,77.03
2017-06-05T04:52:25.104Z,77.23
2017-06-05T04:53:05.757Z,77.03
2017-06-05T04:53:46.408Z,77.13
2017-06-05T04:54:27.066Z,77.8
2017-06-05T04:55:07.832Z,76.94
2017-06-05T04:55:49.478Z,77.13
2017-06-05T04:56:30.192Z,77.26
2017-06-05T04:57:10.736Z,76.84
2017-06-05T04:57:51.434Z,76.98
2017-06-05T04:58:32.109Z,76.98
2017-06-05T04:59:12.791Z,76.88
2017-06-05T04:59:53.324Z,76.4
2017-06-05T05:00:34.035Z,76.21
2017-06-05T05:01:14.713Z,76.69
2017-06-05T05:01:55.367Z,76.5
2017-06-05T05:02:36.027Z,76.21
2017-06-05T05:03:16.673Z,76.4
2017-06-05T05:03:57.354Z,76.6
2017-06-05T05:04:38.082Z,75.93
2017-06-05T05:05:18.736Z,75.83
2017-06-05T05:05:59.500Z,76.03
2017-06-05T05:06:41.215Z,75.49
2017-06-05T05:07:21.761Z,75.68
2017-06-05T05:08:02.447Z,75.49
2017-06-05T05:08:43.170Z,75.96
2017-06-05T05:09:23.702Z,75.39
2017-06-05T05:10:04.384Z,75.59
2017-06-05T05:10:45.178Z,75.68
2017-06-05T05:11:25.887Z,75.49
2017-06-05T05:12:06.643Z,75.1
2017-06-05T05:12:47.295Z,75.49
2017-06-05T05:13:27.942Z,74.82
2017-06-05T05:14:08.593Z,75.01
2017-06-05T05:14:49.236Z,75.2
2017-06-05T05:15:29.801Z,75.3
2017-06-05T05:16:10.539Z,74.91
2017-06-05T05:16:51.067Z,74.91
2017-06-05T05:17:31.770Z,74.82
2017-06-05T05:18:12.438Z,74.44
2017-06-05T05:18:53.174Z,74.44
2017-06-05T05:19:36.315Z,74.24
2017-06-05T05:20:17.303Z,74.53
2017-06-05T05:20:57.995Z,74.44
2017-06-05T05:21:38.527Z,74.63
2017-06-05T05:22:19.158Z,74.34
2017-06-05T05:22:59.799Z,74.05
2017-06-05T05:23:40.317Z,74.44
2017-06-05T05:24:20.919Z,74.44
2017-06-05T05:25:01.559Z,74.44
2017-06-05T05:25:42.093Z,73.99
2017-06-05T05:26:22.671Z,73.9
2017-06-05T05:27:03.346Z,73.99
2017-06-05T05:27:44.998Z,73.61
2017-06-05T05:28:25.652Z,73.52
2017-06-05T05:29:06.340Z,73.8
2017-06-05T05:29:46.965Z,73.71
2017-06-05T05:30:27.618Z,73.8
2017-06-05T05:31:08.265Z,73.43
2017-06-05T05:31:48.967Z,73.43
2017-06-05T05:32:29.562Z,73.04
2017-06-05T05:33:10.089Z,73.43
2017-06-05T05:33:50.783Z,73.23
2017-06-05T05:34:31.525Z,73.14
2017-06-05T05:35:12.176Z,73.43
2017-06-05T05:35:52.694Z,73.43
2017-06-05T05:36:33.401Z,73.04
2017-06-05T05:37:14.040Z,72.85
2017-06-05T05:37:54.685Z,72.94
2017-06-05T05:38:35.377Z,72.66
2017-06-05T05:39:16.058Z,72.47
2017-06-05T05:39:56.804Z,72.47
2017-06-05T05:40:37.507Z,72.56
2017-06-05T05:41:18.163Z,72.22
2017-06-05T05:41:58.678Z,72.31
2017-06-05T05:42:39.283Z,71.83
2017-06-05T05:43:19.914Z,72.12
2017-06-05T05:44:00.575Z,72.31
2017-06-05T05:44:41.219Z,72.12
2017-06-05T05:45:21.892Z,71.83
2017-06-05T05:46:02.520Z,71.93
2017-06-05T05:46:43.075Z,71.83
2017-06-05T05:47:23.623Z,71.55
2017-06-05T05:48:04.277Z,71.45
2017-06-05T05:48:44.980Z,71.26
2017-06-05T05:49:25.671Z,71.26
2017-06-05T05:50:06.194Z,71.11
2017-06-05T05:50:46.795Z,71.3
2017-06-05T05:51:27.481Z,71.3
2017-06-05T05:52:08.092Z,71.39
2017-06-05T05:52:48.756Z,71.3
2017-06-05T05:53:29.327Z,70.81
2017-06-05T05:54:09.949Z,70.91
2017-06-05T05:54:50.601Z,70.62
2017-06-05T05:55:31.279Z,70.72
2017-06-05T05:56:11.992Z,70.91
2017-06-05T05:56:52.688Z,70.91
2017-06-05T05:57:33.339Z,70.81
2017-06-05T05:58:13.995Z,70.43
2017-06-05T05:58:54.652Z,70.81
2017-06-05T05:59:35.272Z,70.72
2017-06-05T06:00:15.955Z,70.37
2017-06-05T06:00:56.607Z,70.56
2017-06-05T06:01:37.265Z,70.43
2017-06-05T06:02:17.952Z,70.47
2017-06-05T06:02:58.591Z,70.66
2017-06-05T06:03:39.126Z,70.18
2017-06-05T06:04:19.732Z,70.66
2017-06-05T06:05:00.433Z,70.09
2017-06-05T06:05:41.115Z,70.09
2017-06-05T06:06:21.662Z,70.09
2017-06-05T06:07:02.317Z,69.99
2017-06-05T06:07:42.955Z,69.89
2017-06-05T06:08:24.637Z,69.8
2017-06-05T06:09:05.299Z,69.6
2017-06-05T06:09:45.947Z,69.64
2017-06-05T06:10:26.605Z,69.64
2017-06-05T06:11:07.246Z,69.74
2017-06-05T06:11:48.007Z,68.97
2017-06-05T06:12:28.677Z,69.35
2017-06-05T06:13:09.307Z,69.17
2017-06-05T06:13:49.976Z,68.97
2017-06-05T06:14:30.627Z,68.87
2017-06-05T06:15:16.106Z,69.17
2017-06-05T06:15:56.846Z,68.49
2017-06-05T06:16:37.525Z,68.59
2017-06-05T06:17:18.198Z,68.49
2017-06-05T06:18:04.712Z,68.78
2017-06-05T06:18:45.393Z,68.78
2017-06-05T06:19:25.946Z,68.49
2017-06-05T06:20:06.640Z,68.49
2017-06-05T06:20:47.329Z,68.59
2017-06-05T06:21:27.935Z,68.4
2017-06-05T06:22:08.634Z,68.01
2017-06-05T06:22:50.255Z,68.4
2017-06-05T06:23:30.811Z,68.21
2017-06-05T06:24:12.492Z,67.95
2017-06-05T06:24:53.280Z,67.38
2017-06-05T06:25:33.972Z,67.76
2017-06-05T06:26:14.509Z,67.38
2017-06-05T06:26:55.107Z,67.47
2017-06-05T06:27:35.772Z,67.18
2017-06-05T06:28:16.390Z,67.28
2017-06-05T06:28:57.086Z,67.38
2017-06-05T06:29:37.723Z,66.89
2017-06-05T06:30:19.407Z,67.47
2017-06-05T06:31:00.083Z,67.38
2017-06-05T06:31:40.629Z,66.99
2017-06-05T06:32:21.271Z,66.99
2017-06-05T06:33:02.916Z,66.99
2017-06-05T06:33:43.672Z,66.22
2017-06-05T06:34:24.386Z,66.03
2017-06-05T06:35:05.000Z,66.42
2017-06-05T06:35:45.708Z,66.03
2017-06-05T06:36:26.421Z,65.75
2017-06-05T06:37:07.046Z,65.26
2017-06-05T06:37:47.617Z,65.65
2017-06-05T06:38:28.273Z,65.65
2017-06-05T06:39:08.875Z,64.98
2017-06-05T06:39:49.462Z,64.98
2017-06-05T06:40:30.143Z,64.98
2017-06-05T06:41:12.841Z,64.31
2017-06-05T06:41:53.399Z,64.98
2017-06-05T06:42:36.112Z,64.31
2017-06-05T06:43:16.729Z,64.31
2017-06-05T06:43:57.392Z,64.59
2017-06-05T06:44:38.042Z,64.5
2017-06-05T06:45:18.685Z,64.15
2017-06-05T06:45:59.337Z,64.02
2017-06-05T06:46:40.002Z,64.12
2017-06-05T06:47:25.364Z,64.25
2017-06-05T06:48:06.018Z,64.31
2017-06-05T06:48:46.680Z,64.25
2017-06-05T06:49:28.336Z,64.25
2017-06-05T06:50:08.999Z,64.34
2017-06-05T06:50:49.664Z,64.15
2017-06-05T06:51:30.306Z,64.25
2017-06-05T06:52:12.041Z,64.34
2017-06-05T06:52:52.733Z,64.15
2017-06-05T06:53:33.400Z,64.15
2017-06-05T06:54:14.026Z,64.15
2017-06-05T06:54:55.783Z,63.86
2017-06-05T06:55:36.518Z,63.86
2017-06-05T06:56:17.253Z,63.67
2017-06-05T06:56:58.895Z,63.96
2017-06-05T06:57:39.430Z,63.48
2017-06-05T06:58:20.123Z,63.57
2017-06-05T06:59:00.790Z,63.19
2017-06-05T06:59:41.488Z,63.38
2017-06-05T07:00:22.069Z,63.29
2017-06-05T07:01:04.695Z,63.48
2017-06-05T07:01:45.389Z,63.09
2017-06-05T07:02:25.946Z,63.19
2017-06-05T07:03:06.767Z,63.09
2017-06-05T07:03:48.393Z,62.9
2017-06-05T07:04:29.072Z,62.71
2017-06-05T07:05:10.748Z,62.62
2017-06-05T07:05:51.382Z,62.74
2017-06-05T07:06:32.044Z,62.74
2017-06-05T07:07:12.837Z,62.65
2017-06-05T07:07:54.545Z,62.74
2017-06-05T07:08:35.091Z,62.55
2017-06-05T07:09:17.745Z,62.26
2017-06-05T07:09:59.458Z,61.78
2017-06-05T07:10:40.039Z,62.07
2017-06-05T07:11:20.713Z,61.98
2017-06-05T07:12:01.414Z,62.07
2017-06-05T07:12:42.082Z,61.98
2017-06-05T07:13:22.667Z,61.59
2017-06-05T07:14:03.319Z,61.4
2017-06-05T07:14:45.012Z,61.49
2017-06-05T07:15:25.597Z,61.59
2017-06-05T07:16:06.313Z,61.11
2017-06-05T07:16:47.038Z,60.92
2017-06-05T07:17:27.715Z,61.11
2017-06-05T07:18:08.421Z,60.92
2017-06-05T07:18:49.164Z,60.35
2017-06-05T07:19:30.903Z,60.82
2017-06-05T07:20:11.529Z,60.72
2017-06-05T07:20:52.208Z,60.35
2017-06-05T07:21:32.862Z,60.35
2017-06-05T07:22:13.563Z,60.35
2017-06-05T07:22:54.253Z,60.25
2017-06-05T07:23:34.827Z,60.44
2017-06-05T07:24:15.478Z,60.35
2017-06-05T07:24:56.161Z,60.44
2017-06-05T07:25:36.759Z,60.35
2017-06-05T07:26:17.325Z,60.44
2017-06-05T07:26:57.922Z,60.15
2017-06-05T07:27:38.540Z,59.96
2017-06-05T07:28:19.101Z,60.05
2017-06-05T07:28:59.745Z,60.05
2017-06-05T07:29:40.287Z,59.86
2017-06-05T07:30:20.991Z,59.96
2017-06-05T07:31:01.673Z,59.86
2017-06-05T07:31:42.220Z,59.86
2017-06-05T07:32:27.440Z,59.77
2017-06-05T07:33:08.103Z,59.86
2017-06-05T07:33:48.751Z,59.96
2017-06-05T07:34:29.473Z,59.86
2017-06-05T07:35:10.125Z,59.86
2017-06-05T07:35:50.716Z,59.96
2017-06-05T07:36:31.361Z,59.86
2017-06-05T07:37:11.989Z,59.96
2017-06-05T07:37:52.691Z,59.77
2017-06-05T07:38:33.260Z,59.67
2017-06-05T07:39:14.890Z,59.96
2017-06-05T07:39:55.517Z,59.86
2017-06-05T07:40:36.179Z,59.86
2017-06-05T07:41:16.821Z,59.86
2017-06-05T07:41:57.384Z,59.67
2017-06-05T07:42:39.083Z,59.48
2017-06-05T07:43:19.632Z,59.58
2017-06-05T07:44:00.218Z,59.67
2017-06-05T07:44:41.829Z,59.29
2017-06-05T07:45:22.550Z,59.19
2017-06-05T07:46:03.198Z,59
2017-06-05T07:46:43.909Z,59.19
2017-06-05T07:47:24.568Z,59.38
2017-06-05T07:48:05.229Z,59.09
2017-06-05T07:48:45.857Z,59
2017-06-05T07:49:26.413Z,59.29
2017-06-05T07:50:07.035Z,59.38
2017-06-05T07:50:47.578Z,58.91
2017-06-05T07:51:28.226Z,59.09
2017-06-05T07:52:08.911Z,58.81
2017-06-05T07:52:49.482Z,58.71
2017-06-05T07:53:30.184Z,58.81
2017-06-05T07:54:10.869Z,58.81
2017-06-05T07:54:52.465Z,58.62
2017-06-05T07:55:34.142Z,58.62
2017-06-05T07:56:14.826Z,58.52
2017-06-05T07:56:55.460Z,58.23
2017-06-05T07:57:36.013Z,58.04
2017-06-05T07:58:16.584Z,58.33
2017-06-05T07:58:57.172Z,58.23
2017-06-05T07:59:37.831Z,58.23
2017-06-05T08:00:18.480Z,58.52
2017-06-05T08:00:59.134Z,58.42
2017-06-05T08:01:39.706Z,58.62
2017-06-05T08:02:20.370Z,57.85
2017-06-05T08:03:01.009Z,58.04
2017-06-05T08:03:41.723Z,58.14
2017-06-05T08:04:22.269Z,57.75
2017-06-05T08:05:02.836Z,58.04
2017-06-05T08:05:44.532Z,57.65
2017-06-05T08:06:25.169Z,58.04
2017-06-05T08:07:05.735Z,57.85
2017-06-05T08:07:46.286Z,57.95
2017-06-05T08:08:26.814Z,57.75
2017-06-05T08:09:07.381Z,57.65
2017-06-05T08:09:48.600Z,57.46
2017-06-05T08:10:29.203Z,57.56
2017-06-05T08:11:09.736Z,57.18
2017-06-05T08:11:50.379Z,57.56
2017-06-05T08:12:30.874Z,57.37
2017-06-05T08:13:11.463Z,57.37
2017-06-05T08:13:54.058Z,57.46
2017-06-05T08:14:34.704Z,57.28
2017-06-05T08:15:15.258Z,56.79
2017-06-05T08:15:55.843Z,56.79
2017-06-05T08:16:36.358Z,56.79
2017-06-05T08:17:16.927Z,56.98
2017-06-05T08:17:57.509Z,56.51
2017-06-05T08:18:38.059Z,56.7
2017-06-05T08:19:18.664Z,57.08
2017-06-05T08:19:59.246Z,56.98
2017-06-05T08:20:39.803Z,57.08
2017-06-05T08:21:20.366Z,56.6
2017-06-05T08:22:00.926Z,56.12
2017-06-05T08:22:41.514Z,56.31
2017-06-05T08:23:22.097Z,56.31
2017-06-05T08:24:02.682Z,56.12
2017-06-05T08:24:43.217Z,56.02
2017-06-05T08:25:23.824Z,55.64
2017-06-05T08:26:04.374Z,55.45
2017-06-05T08:26:44.890Z,55.45
2017-06-05T08:27:25.422Z,55.35
2017-06-05T08:28:05.958Z,55.74
2017-06-05T08:28:46.469Z,55.1
2017-06-05T08:29:26.990Z,55.67
2017-06-05T08:30:07.562Z,54.9
2017-06-05T08:30:48.104Z,55
2017-06-05T08:31:28.720Z,54.61
2017-06-05T08:32:09.272Z,54.33
2017-06-05T08:32:49.947Z,54.42
2017-06-05T08:33:30.734Z,54.04
2017-06-05T08:34:11.390Z,54.06
2017-06-05T08:34:51.991Z,53.85
2017-06-05T08:35:32.583Z,53.39
2017-06-05T08:36:14.480Z,53.11
2017-06-05T08:36:54.976Z,52.91
2017-06-05T08:37:35.581Z,53.11
2017-06-05T08:38:16.149Z,52.81
2017-06-05T08:38:56.800Z,52.91
2017-06-05T08:39:37.351Z,52.24
2017-06-05T08:40:17.925Z,52.46
2017-06-05T08:40:58.517Z,52.46
2017-06-05T08:41:39.161Z,51.79
2017-06-05T08:42:19.789Z,52.17
2017-06-05T08:43:00.339Z,51.79
2017-06-05T08:43:40.861Z,51.43
2017-06-05T08:44:22.447Z,51.33
2017-06-05T08:45:02.983Z,50.76
2017-06-05T08:45:43.577Z,50.76
2017-06-05T08:46:24.151Z,50.18
2017-06-05T08:47:04.666Z,50.59
2017-06-05T08:47:45.260Z,50.2
2017-06-05T08:48:25.923Z,49.82
2017-06-05T08:49:06.526Z,49.72
2017-06-05T08:49:47.305Z,49.82
2017-06-05T08:50:27.951Z,49.91